createdAt,value
2019-05-23T00:02:07.009Z,7.47
2019-05-23T00:04:38.152Z,7.03
2019-05-23T00:07:12.358Z,6.63
2019-05-23T00:09:42.495Z,7.90
2019-05-23T00:12:31.466Z,7.90
2019-05-23T00:15:04.400Z,7.40
2019-05-23T00:17:45.916Z,8.13
2019-05-23T00:20:16.463Z,7.87
2019-05-23T00:22:46.045Z,7.20
2019-05-23T00:25:16.387Z,8.00
2019-05-23T00:27:45.798Z,7.57
2019-05-23T00:30:36.501Z,9.60
2019-05-23T00:33:07.343Z,10.70
2019-05-23T00:35:36.538Z,9.07
2019-05-23T00:38:06.165Z,9.70
2019-05-23T00:40:37.386Z,8.53
2019-05-23T00:43:07.921Z,10.73
2019-05-23T00:45:39.470Z,8.13
2019-05-23T00:48:09.693Z,8.33
2019-05-23T00:50:41.208Z,11.40
2019-05-23T00:53:12.694Z,9.20
2019-05-23T00:55:42.112Z,9.83
2019-05-23T00:58:13.258Z,8.67
2019-05-23T01:00:43.806Z,9.87
2019-05-23T01:03:14.743Z,10.43
2019-05-23T01:05:44.944Z,11.73
2019-05-23T01:08:14.460Z,9.23
2019-05-23T01:10:44.975Z,8.87
2019-05-23T01:13:15.507Z,8.80
2019-05-23T01:15:45.128Z,9.60
2019-05-23T01:18:14.532Z,9.33
2019-05-23T01:21:01.036Z,8.87
2019-05-23T01:23:38.419Z,10.00
2019-05-23T01:26:08.650Z,10.00
2019-05-23T01:28:38.473Z,10.77
2019-05-23T01:31:11.860Z,8.67
2019-05-23T01:33:42.494Z,12.10
2019-05-23T01:36:12.198Z,8.37
2019-05-23T01:38:43.054Z,8.87
2019-05-23T01:41:12.943Z,9.30
2019-05-23T01:43:43.574Z,9.93
2019-05-23T01:46:13.390Z,9.20
2019-05-23T01:48:43.746Z,9.23
2019-05-23T01:51:14.255Z,11.33
2019-05-23T01:53:43.435Z,12.30
2019-05-23T01:56:12.865Z,11.07
2019-05-23T01:58:42.063Z,12.47
2019-05-23T02:01:12.799Z,10.37
2019-05-23T02:03:43.113Z,8.57
2019-05-23T02:06:12.619Z,9.17
2019-05-23T02:08:42.250Z,8.97
2019-05-23T02:11:12.553Z,9.67
2019-05-23T02:13:42.177Z,8.93
2019-05-23T02:16:12.166Z,8.13
2019-05-23T02:18:42.319Z,10.47
2019-05-23T02:21:13.041Z,9.17
2019-05-23T02:23:43.577Z,9.07
2019-05-23T02:26:14.708Z,7.90
2019-05-23T02:28:44.404Z,10.17
2019-05-23T02:31:14.495Z,8.13
2019-05-23T02:33:45.410Z,9.70
2019-05-23T02:36:15.093Z,8.47
2019-05-23T02:38:52.803Z,9.13
2019-05-23T02:41:42.274Z,9.03
2019-05-23T02:44:13.378Z,10.43
2019-05-23T02:46:56.235Z,11.70
2019-05-23T02:49:28.185Z,15.77
2019-05-23T02:51:57.325Z,11.33
2019-05-23T02:54:29.407Z,10.50
2019-05-23T02:56:59.490Z,9.63
2019-05-23T02:59:45.779Z,9.80
2019-05-23T03:02:38.268Z,9.17
2019-05-23T03:05:11.102Z,11.50
2019-05-23T03:07:42.251Z,10.27
2019-05-23T03:10:13.765Z,8.53
2019-05-23T03:12:44.097Z,13.43
2019-05-23T03:15:14.761Z,10.17
2019-05-23T03:17:49.919Z,8.90
2019-05-23T03:20:20.590Z,10.70
2019-05-23T03:23:08.886Z,10.47
2019-05-23T03:25:41.651Z,12.23
2019-05-23T03:28:14.062Z,11.17
2019-05-23T03:30:44.995Z,9.57
2019-05-23T03:33:15.215Z,9.63
2019-05-23T03:35:46.517Z,12.87
2019-05-23T03:38:16.687Z,11.10
2019-05-23T03:40:47.622Z,9.57
2019-05-23T03:43:17.738Z,10.60
2019-05-23T03:45:57.807Z,11.07
2019-05-23T03:48:27.514Z,12.77
2019-05-23T03:50:58.574Z,10.20
2019-05-23T03:53:28.810Z,11.73
2019-05-23T03:55:59.675Z,10.50
2019-05-23T03:58:29.889Z,10.23
2019-05-23T04:01:00.780Z,10.57
2019-05-23T04:03:30.526Z,10.00
2019-05-23T04:06:00.716Z,11.20
2019-05-23T04:08:30.781Z,10.90
2019-05-23T04:11:00.665Z,11.20
2019-05-23T04:13:30.963Z,11.37
2019-05-23T04:16:00.479Z,13.13
2019-05-23T04:18:30.038Z,12.97
2019-05-23T04:20:59.402Z,11.40
2019-05-23T04:23:28.717Z,10.87
2019-05-23T04:25:58.193Z,10.93
2019-05-23T04:28:27.745Z,13.80
2019-05-23T04:30:57.057Z,11.20
2019-05-23T04:33:26.710Z,12.93
2019-05-23T04:35:56.453Z,10.60
2019-05-23T04:38:27.084Z,10.37
2019-05-23T04:40:56.545Z,10.87
2019-05-23T04:43:26.144Z,12.50
2019-05-23T04:45:55.962Z,11.93
2019-05-23T04:48:25.198Z,10.93
2019-05-23T04:50:54.398Z,10.07
2019-05-23T04:53:24.465Z,12.27
2019-05-23T04:55:53.602Z,14.63
2019-05-23T04:58:22.842Z,12.73
2019-05-23T05:00:52.292Z,10.73
2019-05-23T05:03:22.300Z,12.67
2019-05-23T05:05:51.520Z,11.97
2019-05-23T05:08:21.350Z,11.10
2019-05-23T05:10:51.242Z,11.07
2019-05-23T05:13:20.963Z,11.00
2019-05-23T05:15:50.911Z,10.50
2019-05-23T05:18:21.054Z,10.37
2019-05-23T05:20:50.266Z,10.30
2019-05-23T05:23:19.667Z,9.97
2019-05-23T05:25:49.113Z,12.10
2019-05-23T05:28:18.416Z,10.53
2019-05-23T05:30:48.018Z,10.90
2019-05-23T05:33:18.847Z,13.90
2019-05-23T05:35:48.272Z,9.63
2019-05-23T05:38:21.135Z,10.33
2019-05-23T05:40:51.094Z,10.80
2019-05-23T05:43:20.675Z,8.40
2019-05-23T05:45:50.067Z,8.43
2019-05-23T05:48:19.958Z,9.07
2019-05-23T05:50:49.798Z,8.50
2019-05-23T05:53:19.512Z,7.83
2019-05-23T05:55:48.957Z,7.57
2019-05-23T05:58:18.415Z,8.37
2019-05-23T06:00:49.579Z,7.60
2019-05-23T06:03:18.987Z,8.67
2019-05-23T06:06:06.517Z,10.23
2019-05-23T06:08:40.830Z,9.23
2019-05-23T06:11:10.941Z,8.97
2019-05-23T06:13:40.755Z,7.23
2019-05-23T06:16:10.721Z,11.30
2019-05-23T06:18:40.082Z,7.47
2019-05-23T06:21:11.996Z,6.63
2019-05-23T06:23:41.769Z,6.43
2019-05-23T06:26:10.948Z,7.23
2019-05-23T06:28:41.798Z,6.40
2019-05-23T06:31:11.505Z,7.83
2019-05-23T06:33:41.304Z,9.83
2019-05-23T06:36:12.264Z,7.37
2019-05-23T06:38:43.002Z,9.77
2019-05-23T06:41:13.816Z,8.20
2019-05-23T06:43:43.456Z,9.10
2019-05-23T06:46:13.887Z,6.33
2019-05-23T06:48:45.721Z,9.13
2019-05-23T06:51:14.821Z,7.00
2019-05-23T06:53:44.522Z,7.70
2019-05-23T06:56:14.328Z,7.70
2019-05-23T06:58:43.512Z,8.47
2019-05-23T07:01:15.823Z,6.77
2019-05-23T07:03:45.496Z,8.10
2019-05-23T07:06:20.056Z,8.13
2019-05-23T07:08:50.404Z,7.43
2019-05-23T07:11:23.146Z,5.33
2019-05-23T07:13:54.676Z,7.77
2019-05-23T07:16:24.127Z,8.47
2019-05-23T07:18:56.910Z,7.03
2019-05-23T07:21:29.895Z,6.17
2019-05-23T07:23:59.507Z,6.90
2019-05-23T07:26:32.629Z,10.63
2019-05-23T07:29:02.626Z,7.83
2019-05-23T07:31:35.463Z,6.33
2019-05-23T07:34:03.455Z,7.10
2019-05-23T07:36:33.537Z,6.27
2019-05-23T07:39:05.831Z,8.00
2019-05-23T07:41:35.571Z,7.90
2019-05-23T07:44:07.466Z,10.17
2019-05-23T07:46:39.684Z,8.97
2019-05-23T07:49:11.354Z,7.77
2019-05-23T07:51:40.983Z,7.80
2019-05-23T07:54:15.286Z,8.37
2019-05-23T07:56:48.394Z,7.30
2019-05-23T07:59:17.993Z,8.33
2019-05-23T08:01:53.433Z,6.97
2019-05-23T08:04:23.056Z,6.87
2019-05-23T08:06:53.066Z,7.37
2019-05-23T08:09:23.792Z,8.07
2019-05-23T08:11:55.575Z,7.27
2019-05-23T08:14:25.826Z,8.57
2019-05-23T08:16:55.603Z,12.27
2019-05-23T08:19:26.210Z,6.20
2019-05-23T08:21:55.731Z,9.33
2019-05-23T08:24:25.934Z,8.23
2019-05-23T08:26:56.988Z,7.67
2019-05-23T08:29:27.155Z,7.33
2019-05-23T08:31:57.127Z,8.13
2019-05-23T08:34:40.554Z,9.83
2019-05-23T08:36:59.623Z,7.97
2019-05-23T08:39:30.411Z,7.80
2019-05-23T08:42:00.311Z,7.20
2019-05-23T08:44:30.089Z,8.43
2019-05-23T08:46:59.395Z,9.73
2019-05-23T08:49:29.418Z,6.83
2019-05-23T08:51:59.332Z,7.33
2019-05-23T08:54:28.938Z,7.20
2019-05-23T08:56:58.207Z,5.57
2019-05-23T08:59:28.953Z,7.97
2019-05-23T09:01:58.185Z,7.53
2019-05-23T09:04:27.975Z,8.27
2019-05-23T09:07:00.674Z,8.03
2019-05-23T09:09:30.657Z,7.37
2019-05-23T09:12:02.762Z,7.53
2019-05-23T09:14:32.656Z,7.33
2019-05-23T09:17:02.780Z,6.40
2019-05-23T09:19:34.395Z,7.07
2019-05-23T09:22:04.158Z,6.37
2019-05-23T09:24:33.463Z,6.70
2019-05-23T09:27:02.764Z,6.17
2019-05-23T09:29:32.984Z,5.67
2019-05-23T09:32:05.892Z,5.73
2019-05-23T09:34:35.791Z,6.83
2019-05-23T09:37:05.469Z,6.30
2019-05-23T09:39:36.923Z,8.93
2019-05-23T09:42:06.448Z,5.60
2019-05-23T09:44:42.861Z,4.80
2019-05-23T09:47:14.500Z,6.10
2019-05-23T09:49:53.682Z,7.20
2019-05-23T09:52:16.057Z,15.03
2019-05-23T09:54:45.972Z,8.90
2019-05-23T09:57:22.933Z,6.00
2019-05-23T09:59:56.897Z,6.97
2019-05-23T10:02:31.652Z,5.27
2019-05-23T10:05:06.137Z,8.23
2019-05-23T10:07:46.721Z,7.07
2019-05-23T10:10:14.078Z,10.67
2019-05-23T10:12:43.859Z,9.13
2019-05-23T10:15:18.204Z,6.60
2019-05-23T10:17:47.631Z,6.50
2019-05-23T10:20:22.894Z,6.63
2019-05-23T10:22:51.806Z,8.23
2019-05-23T10:25:21.306Z,11.70
2019-05-23T10:27:55.933Z,12.37
2019-05-23T10:30:25.751Z,8.60
2019-05-23T10:32:55.263Z,9.07
2019-05-23T10:35:25.296Z,6.17
2019-05-23T10:37:54.479Z,6.63
2019-05-23T10:40:24.304Z,6.80
2019-05-23T10:42:53.735Z,7.03
2019-05-23T10:45:23.106Z,5.10
2019-05-23T10:47:52.521Z,5.57
2019-05-23T10:50:21.993Z,4.90
2019-05-23T10:52:51.419Z,7.57
2019-05-23T10:55:20.596Z,4.40
2019-05-23T10:57:49.798Z,6.50
2019-05-23T11:00:20.052Z,6.33
2019-05-23T11:02:49.811Z,4.53
2019-05-23T11:05:19.489Z,5.27
2019-05-23T11:07:48.893Z,6.13
2019-05-23T11:10:18.348Z,4.23
2019-05-23T11:12:47.934Z,5.00
2019-05-23T11:15:17.413Z,4.00
2019-05-23T11:17:46.748Z,4.13
2019-05-23T11:20:17.465Z,3.70
2019-05-23T11:23:03.484Z,4.90
2019-05-23T11:25:30.728Z,4.47
2019-05-23T11:27:59.874Z,3.33
2019-05-23T11:30:49.265Z,3.87
2019-05-23T11:33:20.310Z,6.80
2019-05-23T11:35:49.577Z,5.80
2019-05-23T11:38:19.981Z,6.63
2019-05-23T11:40:49.775Z,3.93
2019-05-23T11:43:19.205Z,5.20
2019-05-23T11:45:50.770Z,4.47
2019-05-23T11:48:20.518Z,4.17
2019-05-23T11:50:49.638Z,5.17
2019-05-23T11:53:19.106Z,6.07
2019-05-23T11:55:53.267Z,6.97
2019-05-23T11:58:19.780Z,4.00
2019-05-23T12:01:01.145Z,4.40
2019-05-23T12:03:30.398Z,4.23
2019-05-23T12:05:59.851Z,7.30
2019-05-23T12:08:29.009Z,7.37
2019-05-23T12:10:58.615Z,3.97
2019-05-23T12:13:28.786Z,4.87
2019-05-23T12:15:59.100Z,5.60
2019-05-23T12:18:29.439Z,3.13
2019-05-23T12:20:59.810Z,4.30
2019-05-23T12:23:29.641Z,4.43
2019-05-23T12:25:58.995Z,3.77
2019-05-23T12:28:29.518Z,5.60
2019-05-23T12:30:58.999Z,6.63
2019-05-23T12:33:28.059Z,6.33
2019-05-23T12:35:57.178Z,4.37
2019-05-23T12:38:26.309Z,5.93
2019-05-23T12:41:15.837Z,4.17
2019-05-23T12:43:45.245Z,3.83
2019-05-23T12:46:15.181Z,3.83
2019-05-23T12:48:46.392Z,4.63
2019-05-23T12:51:17.252Z,3.33
2019-05-23T12:53:46.646Z,3.10
2019-05-23T12:56:16.286Z,6.67
2019-05-23T12:58:46.590Z,9.90
2019-05-23T13:01:16.387Z,5.57
2019-05-23T13:03:45.529Z,3.07
2019-05-23T13:06:15.669Z,6.10
2019-05-23T13:08:45.498Z,4.50
2019-05-23T13:11:15.023Z,4.27
2019-05-23T13:13:44.450Z,8.17
2019-05-23T13:16:13.648Z,6.50
2019-05-23T13:18:42.840Z,5.27
2019-05-23T13:21:14.000Z,4.33
2019-05-23T13:23:43.265Z,4.80
2019-05-23T13:26:13.005Z,3.60
2019-05-23T13:28:42.296Z,3.80
2019-05-23T13:31:11.792Z,3.80
2019-05-23T13:33:41.401Z,5.93
2019-05-23T13:36:11.425Z,3.73
2019-05-23T13:38:41.031Z,6.07
2019-05-23T13:41:10.442Z,4.37
2019-05-23T13:43:40.144Z,4.93
2019-05-23T13:46:09.754Z,6.77
2019-05-23T13:48:38.975Z,8.37
2019-05-23T13:51:08.265Z,4.40
2019-05-23T13:53:37.973Z,4.50
2019-05-23T13:56:07.360Z,5.17
2019-05-23T13:58:37.204Z,4.27
2019-05-23T14:01:09.583Z,5.43
2019-05-23T14:03:38.957Z,3.70
2019-05-23T14:06:08.874Z,4.97
2019-05-23T14:08:38.582Z,3.97
2019-05-23T14:11:08.608Z,4.73
2019-05-23T14:13:38.117Z,5.10
2019-05-23T14:16:08.597Z,3.17
2019-05-23T14:18:38.251Z,3.50
2019-05-23T14:21:07.563Z,3.30
2019-05-23T14:23:37.076Z,3.17
2019-05-23T14:26:06.871Z,5.63
2019-05-23T14:28:36.478Z,3.97
2019-05-23T14:31:10.196Z,4.43
2019-05-23T14:33:56.187Z,6.90
2019-05-23T14:36:31.713Z,5.07
2019-05-23T14:38:59.787Z,4.93
2019-05-23T14:41:44.044Z,5.87
2019-05-23T14:44:02.413Z,7.13
2019-05-23T14:46:33.241Z,6.47
2019-05-23T14:49:04.389Z,3.23
2019-05-23T14:51:44.118Z,4.73
2019-05-23T14:54:21.014Z,3.60
2019-05-23T14:56:50.518Z,5.50
2019-05-23T14:59:20.127Z,3.33
2019-05-23T15:01:50.643Z,3.03
2019-05-23T15:04:19.961Z,4.20
2019-05-23T15:06:49.868Z,4.97
2019-05-23T15:09:21.486Z,3.33
2019-05-23T15:11:51.679Z,3.40
2019-05-23T15:14:40.729Z,5.70
2019-05-23T15:17:10.211Z,3.40
2019-05-23T15:19:44.852Z,2.80
2019-05-23T15:22:11.475Z,2.27
2019-05-23T15:24:40.894Z,3.60
2019-05-23T15:27:10.504Z,3.00
2019-05-23T15:29:41.586Z,4.47
2019-05-23T15:32:10.845Z,4.37
2019-05-23T15:34:40.247Z,2.40
2019-05-23T15:37:09.788Z,4.23
2019-05-23T15:39:39.161Z,2.90
2019-05-23T15:42:08.658Z,3.47
2019-05-23T15:44:39.441Z,2.90
2019-05-23T15:47:08.704Z,6.60
2019-05-23T15:49:39.746Z,2.83
2019-05-23T15:52:27.072Z,4.50
2019-05-23T15:55:01.166Z,5.97
2019-05-23T15:57:40.930Z,3.70
2019-05-23T16:00:28.757Z,8.27
2019-05-23T16:03:05.637Z,4.57
2019-05-23T16:05:35.139Z,4.90
2019-05-23T16:08:05.439Z,3.23
2019-05-23T16:10:35.698Z,3.27
2019-05-23T16:13:05.729Z,6.33
2019-05-23T16:15:35.557Z,5.60
2019-05-23T16:18:05.561Z,5.13
2019-05-23T16:20:35.048Z,6.60
2019-05-23T16:23:04.659Z,5.53
2019-05-23T16:25:34.070Z,6.53
2019-05-23T16:28:03.604Z,6.57
2019-05-23T16:30:33.493Z,4.87
2019-05-23T16:33:03.188Z,2.47
2019-05-23T16:35:32.702Z,5.33
2019-05-23T16:38:02.457Z,5.03
2019-05-23T16:40:31.955Z,6.90
2019-05-23T16:43:01.447Z,4.37
2019-05-23T16:45:31.343Z,3.40
2019-05-23T16:48:00.651Z,5.27
2019-05-23T16:50:30.143Z,5.77
2019-05-23T16:52:59.358Z,4.33
2019-05-23T16:55:46.585Z,3.07
2019-05-23T16:58:20.797Z,2.77
2019-05-23T17:01:20.315Z,2.97
2019-05-23T17:03:49.400Z,3.07
2019-05-23T17:06:27.205Z,7.90
2019-05-23T17:08:58.041Z,2.60
2019-05-23T17:11:40.951Z,4.73
2019-05-23T17:14:11.906Z,4.73
2019-05-23T17:16:54.721Z,3.57
2019-05-23T17:19:29.337Z,4.97
2019-05-23T17:22:00.895Z,2.60
2019-05-23T17:24:34.811Z,1.90
2019-05-23T17:27:11.783Z,2.10
2019-05-23T17:29:45.395Z,3.63
2019-05-23T17:32:16.664Z,4.93
2019-05-23T17:34:46.135Z,3.80
2019-05-23T17:37:15.974Z,3.73
2019-05-23T17:39:45.676Z,6.50
2019-05-23T17:42:17.427Z,5.73
2019-05-23T17:44:47.130Z,3.93
2019-05-23T17:47:17.016Z,5.67
2019-05-23T17:49:46.258Z,4.87
2019-05-23T17:52:16.380Z,5.73
2019-05-23T17:54:45.989Z,9.20
2019-05-23T17:57:15.701Z,3.40
2019-05-23T17:59:47.453Z,8.93
2019-05-23T18:02:18.395Z,9.50
2019-05-23T18:04:48.714Z,11.33
2019-05-23T18:07:18.440Z,6.57
2019-05-23T18:09:48.288Z,4.00
2019-05-23T18:12:17.851Z,3.17
2019-05-23T18:14:47.358Z,4.10
2019-05-23T18:17:17.394Z,2.13
2019-05-23T18:19:46.684Z,1.57
2019-05-23T18:22:17.407Z,3.13
2019-05-23T18:24:47.632Z,2.07
2019-05-23T18:27:17.342Z,1.50
2019-05-23T18:29:47.091Z,2.30
2019-05-23T18:32:18.306Z,3.63
2019-05-23T18:34:49.770Z,2.43
2019-05-23T18:37:22.167Z,2.20
2019-05-23T18:39:52.656Z,2.03
2019-05-23T18:42:22.473Z,2.37
2019-05-23T18:44:53.219Z,3.00
2019-05-23T18:47:27.013Z,3.33
2019-05-23T18:49:57.369Z,2.27
2019-05-23T18:52:27.158Z,1.57
2019-05-23T18:54:58.618Z,2.70
2019-05-23T18:57:31.053Z,2.63
2019-05-23T19:00:00.709Z,2.77
2019-05-23T19:02:30.290Z,1.70
2019-05-23T19:04:59.795Z,4.00
2019-05-23T19:07:28.995Z,3.27
2019-05-23T19:09:58.398Z,1.70
2019-05-23T19:12:27.905Z,2.87
2019-05-23T19:14:57.621Z,1.63
2019-05-23T19:17:27.527Z,2.47
2019-05-23T19:19:56.833Z,1.93
2019-05-23T19:22:26.442Z,1.60
2019-05-23T19:24:55.949Z,3.17
2019-05-23T19:27:25.853Z,2.80
2019-05-23T19:29:55.851Z,2.63
2019-05-23T19:32:25.375Z,3.77
2019-05-23T19:34:55.320Z,3.10
2019-05-23T19:37:24.900Z,2.20
2019-05-23T19:39:54.420Z,2.53
2019-05-23T19:42:24.831Z,1.70
2019-05-23T19:44:54.153Z,1.93
2019-05-23T19:47:23.454Z,2.10
2019-05-23T19:49:52.945Z,1.73
2019-05-23T19:52:22.263Z,1.80
2019-05-23T19:54:51.864Z,2.63
2019-05-23T19:57:21.601Z,8.10
2019-05-23T19:59:50.983Z,9.17
2019-05-23T20:02:34.108Z,5.27
2019-05-23T20:05:05.946Z,3.13
2019-05-23T20:07:35.170Z,4.50
2019-05-23T20:10:12.975Z,3.33
2019-05-23T20:12:42.463Z,2.67
2019-05-23T20:15:12.075Z,4.03
2019-05-23T20:17:41.287Z,4.27
2019-05-23T20:20:11.098Z,3.20
2019-05-23T20:22:41.526Z,1.90
2019-05-23T20:25:30.082Z,2.33
2019-05-23T20:27:59.370Z,2.30
2019-05-23T20:30:45.947Z,4.83
2019-05-23T20:33:15.805Z,2.30
2019-05-23T20:35:45.298Z,2.20
2019-05-23T20:38:14.924Z,2.30
2019-05-23T20:40:44.069Z,2.63
2019-05-23T20:43:13.828Z,2.30
2019-05-23T20:45:43.957Z,2.00
2019-05-23T20:48:14.175Z,3.43
2019-05-23T20:50:44.517Z,2.80
2019-05-23T20:53:14.014Z,4.10
2019-05-23T20:55:43.306Z,10.43
2019-05-23T20:58:12.505Z,11.30
2019-05-23T21:00:52.374Z,15.23
2019-05-23T21:03:22.845Z,13.13
2019-05-23T21:05:52.419Z,16.67
2019-05-23T21:08:22.243Z,10.33
2019-05-23T21:10:51.794Z,8.40
2019-05-23T21:13:20.954Z,9.60
2019-05-23T21:15:50.500Z,9.10
2019-05-23T21:18:20.177Z,11.30
2019-05-23T21:20:49.302Z,9.20
2019-05-23T21:23:18.451Z,8.83
2019-05-23T21:25:49.240Z,9.77
2019-05-23T21:28:18.506Z,9.33
2019-05-23T21:30:47.691Z,9.83
2019-05-23T21:33:17.051Z,9.80
2019-05-23T21:35:46.233Z,8.80
2019-05-23T21:38:15.720Z,11.17
2019-05-23T21:40:45.556Z,7.53
2019-05-23T21:43:20.679Z,5.83
2019-05-23T21:45:50.535Z,7.80
2019-05-23T21:48:20.030Z,6.30
2019-05-23T21:50:49.523Z,6.30
2019-05-23T21:53:18.877Z,5.90
2019-05-23T21:55:48.105Z,5.90
2019-05-23T21:58:17.506Z,4.87
2019-05-23T22:01:06.472Z,12.83
2019-05-23T22:03:38.391Z,16.93
2019-05-23T22:06:11.797Z,12.33
2019-05-23T22:08:42.880Z,5.17
2019-05-23T22:11:12.451Z,6.67
2019-05-23T22:13:41.853Z,6.73
2019-05-23T22:16:11.590Z,4.60
2019-05-23T22:18:41.106Z,6.20
2019-05-23T22:21:10.753Z,4.67
2019-05-23T22:23:39.934Z,4.53
2019-05-23T22:26:09.421Z,4.60
2019-05-23T22:28:38.677Z,5.37
2019-05-23T22:31:09.424Z,5.30
2019-05-23T22:33:40.594Z,5.47
2019-05-23T22:36:10.401Z,6.00
2019-05-23T22:38:39.559Z,5.27
2019-05-23T22:41:08.704Z,4.50
2019-05-23T22:43:37.859Z,6.50
2019-05-23T22:46:07.044Z,4.67
2019-05-23T22:48:36.242Z,4.10
2019-05-23T22:51:05.695Z,4.23
2019-05-23T22:53:54.438Z,6.13
2019-05-23T22:56:23.816Z,8.83
2019-05-23T22:58:53.131Z,6.20
2019-05-23T23:01:24.059Z,6.17
2019-05-23T23:03:54.419Z,5.43
2019-05-23T23:06:24.292Z,5.23
2019-05-23T23:08:53.804Z,6.00
2019-05-23T23:11:23.110Z,5.77
2019-05-23T23:13:52.408Z,7.43
2019-05-23T23:16:21.880Z,7.13
2019-05-23T23:18:51.149Z,4.97
2019-05-23T23:21:20.517Z,5.00
2019-05-23T23:23:49.718Z,4.57
2019-05-23T23:26:19.018Z,5.63
2019-05-23T23:28:49.155Z,6.73
2019-05-23T23:31:18.637Z,4.77
2019-05-23T23:33:48.143Z,4.83
2019-05-23T23:36:17.408Z,5.53
2019-05-23T23:38:47.357Z,7.03
2019-05-23T23:41:16.763Z,5.80
2019-05-23T23:43:58.826Z,7.17
2019-05-23T23:46:35.026Z,5.77
2019-05-23T23:49:21.888Z,7.00
2019-05-23T23:52:09.434Z,4.20
2019-05-23T23:54:56.322Z,5.27
2019-05-23T23:57:43.471Z,5.23
